Time;durP1;ratioP1;P1;durP2;ratioP2;P2;SDS_P1;SDS_P2;PMS_P1;PMS_P2;Temp;Humidity;BMP_temperature;BMP_pressure;BME280_temperature;BME280_humidity;BME280_pressure;Samples;Min_cycle;Max_cycle;Signal;HPM_P1;HPM_P2
2023/01/12 00:01:31;;;;;;;23.97;11.93;;;5.30;99.90;;;;;;5018434;28;20370;-85
2023/01/12 00:03:57;;;;;;;18.98;10.82;;;5.20;99.90;;;;;;5021091;28;20483;-86
2023/01/12 00:06:23;;;;;;;18.30;10.57;;;5.40;99.90;;;;;;5019867;28;20460;-85
2023/01/12 00:08:50;;;;;;;18.42;10.68;;;5.50;99.90;;;;;;5015795;28;20398;-85
2023/01/12 00:11:17;;;;;;;18.73;10.57;;;5.60;99.90;;;;;;5020303;28;20400;-84
2023/01/12 00:13:43;;;;;;;18.43;10.47;;;5.60;99.90;;;;;;5019043;28;20414;-86
2023/01/12 00:16:33;;;;;;;21.85;10.45;;;5.60;99.90;;;;;;5028421;28;20435;-85
2023/01/12 00:19:11;;;;;;;22.95;11.90;;;5.50;99.90;;;;;;5020733;28;20455;-85
2023/01/12 00:22:01;;;;;;;16.30;10.90;;;5.50;99.90;;;;;;5020843;28;20490;-83
2023/01/12 00:24:34;;;;;;;20.80;9.98;;;5.60;99.90;;;;;;5019874;28;20385;-84
2023/01/12 00:27:03;;;;;;;20.50;10.30;;;5.60;99.90;;;;;;5026536;28;20385;-85
2023/01/12 00:29:29;;;;;;;16.13;9.73;;;5.50;99.90;;;;;;5020880;28;20913;-84
2023/01/12 00:31:56;;;;;;;18.85;10.30;;;5.50;99.90;;;;;;5018870;28;20449;-84
2023/01/12 00:34:23;;;;;;;20.27;10.95;;;5.40;99.90;;;;;;5018775;28;21145;-85
2023/01/12 00:36:55;;;;;;;20.05;10.18;;;5.40;99.90;;;;;;5023057;28;20389;-85
2023/01/12 00:39:21;;;;;;;20.35;10.20;;;5.40;99.90;;;;;;5021709;28;20389;-85
2023/01/12 00:47:17;;;;;;;19.55;10.35;;;5.30;99.90;;;;;;5004737;28;20417;-86
2023/01/12 00:49:43;;;;;;;20.48;10.55;;;5.20;99.90;;;;;;5006455;28;20393;-85
2023/01/12 00:52:14;;;;;;;18.83;9.95;;;5.20;99.90;;;;;;5004217;28;20474;-85
2023/01/12 00:54:39;;;;;;;20.63;10.40;;;5.20;99.90;;;;;;5006535;28;20997;-85
2023/01/12 00:57:06;;;;;;;17.27;9.80;;;5.20;99.90;;;;;;5007473;28;20428;-86
2023/01/12 00:59:32;;;;;;;17.25;9.45;;;5.20;99.90;;;;;;5029783;28;20393;-85
2023/01/12 01:01:58;;;;;;;16.40;8.98;;;5.20;99.90;;;;;;5030664;28;20409;-85
2023/01/12 01:04:24;;;;;;;21.07;9.20;;;5.30;99.90;;;;;;5029263;28;20385;-86
2023/01/12 01:06:50;;;;;;;17.57;8.13;;;5.30;99.90;;;;;;5029617;28;20382;-84
2023/01/12 01:09:15;;;;;;;17.23;8.47;;;5.40;99.90;;;;;;5031802;28;20388;-85
2023/01/12 01:11:41;;;;;;;14.90;7.57;;;5.40;99.90;;;;;;5032195;28;20393;-84
2023/01/12 01:14:07;;;;;;;17.02;7.55;;;5.50;99.90;;;;;;5033073;28;20390;-85
2023/01/12 01:16:33;;;;;;;19.20;7.13;;;5.50;99.90;;;;;;5033611;28;20386;-85
2023/01/12 01:19:00;;;;;;;16.47;6.63;;;5.70;99.90;;;;;;5044967;28;20400;-84
2023/01/12 01:21:26;;;;;;;16.55;6.90;;;5.80;99.90;;;;;;5048283;28;20385;-87
2023/01/12 01:23:52;;;;;;;14.45;6.53;;;5.90;99.90;;;;;;5029482;28;20417;-87
2023/01/12 01:26:20;;;;;;;11.15;5.72;;;5.90;99.90;;;;;;5262917;22;20423;-86
2023/01/12 01:28:47;;;;;;;13.68;5.55;;;6.00;99.90;;;;;;5002604;28;21119;-87
2023/01/12 01:31:15;;;;;;;13.57;5.38;;;6.10;99.90;;;;;;4993366;28;21801;-88
2023/01/12 01:33:41;;;;;;;12.07;5.03;;;6.20;99.90;;;;;;5017008;28;20402;-86
2023/01/12 01:36:09;;;;;;;13.73;4.63;;;6.20;99.90;;;;;;4994997;28;20409;-86
2023/01/12 01:38:36;;;;;;;12.30;4.40;;;6.30;99.90;;;;;;5032003;28;20476;-86
2023/01/12 01:41:02;;;;;;;13.35;4.35;;;6.40;99.90;;;;;;5029047;28;20468;-84
2023/01/12 01:43:46;;;;;;;14.02;4.47;;;6.40;99.90;;;;;;5019336;28;20466;-85
2023/01/12 01:46:15;;;;;;;15.40;4.30;;;6.50;99.90;;;;;;5008316;28;20409;-87
2023/01/12 01:48:42;;;;;;;11.80;3.92;;;6.60;99.90;;;;;;5021172;28;20393;-84
2023/01/12 01:51:12;;;;;;;15.50;4.18;;;6.60;99.90;;;;;;5004813;28;20381;-85
2023/01/12 01:53:41;;;;;;;11.38;4.00;;;6.60;99.90;;;;;;5004918;28;20436;-86
2023/01/12 01:56:19;;;;;;;13.60;4.28;;;6.70;99.90;;;;;;5033050;28;20385;-86
2023/01/12 01:58:56;;;;;;;13.13;4.25;;;6.70;99.90;;;;;;5029193;28;20395;-86
2023/01/12 02:01:22;;;;;;;14.20;3.92;;;6.70;99.90;;;;;;5042174;28;20381;-86
2023/01/12 02:03:48;;;;;;;15.50;4.00;;;6.70;99.90;;;;;;5024141;28;20391;-86
2023/01/12 02:06:14;;;;;;;10.60;3.70;;;6.70;99.90;;;;;;5024620;28;20469;-86
2023/01/12 02:08:44;;;;;;;14.82;4.18;;;6.70;99.90;;;;;;5024518;28;20390;-86
2023/01/12 02:16:57;;;;;;;12.82;3.70;;;6.80;99.90;;;;;;5008924;28;20449;-86
2023/01/12 02:19:44;;;;;;;12.68;3.65;;;6.70;99.90;;;;;;5024070;28;20379;-86
2023/01/12 02:22:19;;;;;;;7.97;3.28;;;6.90;99.90;;;;;;5024234;28;20383;-86
2023/01/12 02:25:09;;;;;;;12.50;3.55;;;6.80;99.90;;;;;;5023565;28;20746;-85
2023/01/12 02:28:12;;;;;;;12.55;3.63;;;6.80;99.90;;;;;;5023762;28;20554;-84
2023/01/12 02:31:10;;;;;;;13.88;3.65;;;6.80;99.90;;;;;;5008908;28;20446;-86
2023/01/12 02:34:08;;;;;;;12.15;3.83;;;6.80;99.90;;;;;;5004232;28;20825;-86
2023/01/12 02:36:49;;;;;;;13.82;3.72;;;6.70;99.90;;;;;;5025295;28;20501;-85
2023/01/12 02:39:25;;;;;;;11.88;3.75;;;6.80;99.90;;;;;;5026144;28;20397;-84
2023/01/12 02:44:57;;;;;;;11.20;3.90;;;6.70;99.90;;;;;;5015093;28;20414;-85
2023/01/12 02:48:12;;;;;;;14.00;3.83;;;6.70;99.90;;;;;;5024781;28;20378;-84
2023/01/12 02:50:40;;;;;;;16.67;4.07;;;6.80;99.90;;;;;;5027223;28;20383;-84
2023/01/12 02:53:29;;;;;;;13.57;3.78;;;6.80;99.90;;;;;;5016776;28;20393;-84
2023/01/12 02:55:58;;;;;;;11.40;3.40;;;6.80;99.90;;;;;;4988197;28;20984;-84
2023/01/12 02:58:26;;;;;;;11.80;3.97;;;6.70;99.90;;;;;;5004419;28;20388;-85
2023/01/12 03:00:56;;;;;;;12.35;4.00;;;6.70;99.90;;;;;;4990022;28;20385;-84
2023/01/12 03:03:22;;;;;;;13.73;3.60;;;6.80;99.90;;;;;;5032732;28;20880;-85
2023/01/12 03:05:50;;;;;;;10.88;3.33;;;6.80;99.90;;;;;;5048263;28;20408;-84
2023/01/12 03:08:22;;;;;;;12.27;3.58;;;6.80;99.90;;;;;;5033310;28;20462;-85
2023/01/12 03:11:10;;;;;;;12.93;3.63;;;6.80;99.90;;;;;;5019116;28;20387;-85
2023/01/12 03:13:46;;;;;;;13.55;3.50;;;6.80;99.90;;;;;;5027695;28;20430;-85
2023/01/12 03:16:16;;;;;;;11.68;3.55;;;6.80;99.90;;;;;;5029407;28;20395;-85
2023/01/12 03:18:48;;;;;;;11.63;3.70;;;6.90;99.90;;;;;;5029048;28;20398;-86
2023/01/12 03:21:29;;;;;;;11.32;3.88;;;6.80;99.90;;;;;;5014469;28;20412;-85
2023/01/12 03:23:58;;;;;;;12.15;3.50;;;6.90;99.90;;;;;;5015175;28;20375;-85
2023/01/12 03:26:26;;;;;;;11.30;3.20;;;6.80;99.90;;;;;;5021530;28;20465;-85
2023/01/12 03:29:11;;;;;;;9.55;3.25;;;6.80;99.90;;;;;;5034123;28;20423;-86
2023/01/12 03:31:37;;;;;;;11.70;3.42;;;6.80;99.90;;;;;;5026115;28;21281;-86
2023/01/12 03:34:03;;;;;;;13.10;3.45;;;6.90;99.90;;;;;;5012572;28;20474;-87
2023/01/12 03:36:34;;;;;;;8.70;3.28;;;6.90;99.90;;;;;;5012497;28;20891;-87
2023/01/12 03:39:25;;;;;;;11.55;3.20;;;6.90;99.90;;;;;;5026231;28;20897;-85
2023/01/12 03:42:06;;;;;;;10.65;3.35;;;6.90;99.90;;;;;;5027217;28;20900;-86
2023/01/12 03:44:59;;;;;;;14.27;3.47;;;6.90;99.90;;;;;;5013349;28;20420;-87
2023/01/12 03:47:28;;;;;;;10.40;3.00;;;7.00;99.90;;;;;;5044360;28;20405;-87
2023/01/12 03:50:02;;;;;;;9.07;3.00;;;7.00;99.90;;;;;;5044509;28;20394;-87
2023/01/12 03:52:29;;;;;;;11.35;3.10;;;7.10;99.90;;;;;;5044923;28;20397;-87
2023/01/12 03:54:57;;;;;;;11.43;3.20;;;7.10;99.90;;;;;;5029022;28;20820;-88
2023/01/12 03:57:24;;;;;;;9.93;3.13;;;7.10;99.90;;;;;;5030376;28;20377;-87
2023/01/12 03:59:49;;;;;;;11.63;3.30;;;7.10;99.90;;;;;;5024541;28;20478;-87
2023/01/12 04:02:15;;;;;;;10.13;3.43;;;7.20;99.90;;;;;;5032022;28;20625;-87
2023/01/12 04:04:41;;;;;;;8.50;3.05;;;7.20;99.90;;;;;;5043215;28;20386;-88
2023/01/12 04:07:07;;;;;;;10.77;2.95;;;7.20;99.90;;;;;;5042803;28;20403;-87
2023/01/12 04:09:32;;;;;;;13.07;3.13;;;7.30;99.90;;;;;;5019410;28;20867;-88
2023/01/12 04:12:10;;;;;;;10.07;3.07;;;7.40;99.90;;;;;;5018770;28;20564;-86
2023/01/12 04:14:41;;;;;;;8.65;3.10;;;7.30;99.90;;;;;;4991581;28;20399;-87
2023/01/12 04:17:09;;;;;;;11.80;3.70;;;7.40;99.90;;;;;;5002687;28;20408;-87
2023/01/12 04:19:35;;;;;;;10.97;3.13;;;7.40;99.90;;;;;;5007317;28;20403;-87
2023/01/12 04:24:47;;;;;;;10.10;3.08;;;7.20;99.90;;;;;;4990767;28;20656;-86
2023/01/12 04:27:13;;;;;;;8.20;2.90;;;7.30;99.90;;;;;;4990252;28;21006;-86
2023/01/12 04:29:39;;;;;;;9.13;3.23;;;7.40;99.90;;;;;;4999749;28;20524;-86
2023/01/12 04:32:05;;;;;;;9.93;3.17;;;7.40;99.90;;;;;;4990958;28;20501;-86
2023/01/12 04:34:31;;;;;;;10.93;3.47;;;7.40;99.90;;;;;;4993133;28;20591;-86
2023/01/12 04:36:56;;;;;;;10.75;3.00;;;7.50;99.90;;;;;;4990239;28;20866;-87
2023/01/12 04:39:22;;;;;;;10.60;3.20;;;7.50;99.90;;;;;;5026648;28;20721;-86
2023/01/12 04:41:48;;;;;;;11.73;3.25;;;7.50;99.90;;;;;;5046336;28;20447;-87
2023/01/12 04:44:13;;;;;;;9.63;2.83;;;7.50;99.90;;;;;;5028398;28;20435;-86
2023/01/12 04:46:39;;;;;;;9.32;2.88;;;7.50;99.90;;;;;;5046054;28;20405;-87
2023/01/12 04:49:05;;;;;;;7.88;2.92;;;7.50;99.90;;;;;;5043935;28;20393;-85
2023/01/12 04:51:30;;;;;;;6.93;3.00;;;7.50;99.90;;;;;;5048306;28;20385;-86
2023/01/12 04:53:56;;;;;;;9.03;3.10;;;7.50;99.90;;;;;;5045403;28;20393;-86
2023/01/12 04:56:22;;;;;;;9.35;3.42;;;7.50;99.90;;;;;;5029935;28;20421;-86
2023/01/12 04:58:47;;;;;;;8.18;2.70;;;7.60;99.90;;;;;;5029101;28;20479;-87
2023/01/12 05:01:15;;;;;;;10.87;3.20;;;7.70;99.90;;;;;;5043063;28;20458;-85
2023/01/12 05:03:42;;;;;;;8.43;2.85;;;7.70;99.90;;;;;;5029229;28;20480;-87
2023/01/12 05:06:08;;;;;;;11.18;3.22;;;7.80;99.90;;;;;;5043677;28;20424;-86
2023/01/12 05:11:20;;;;;;;8.90;2.95;;;7.70;99.90;;;;;;5027987;28;20789;-87
2023/01/12 05:13:46;;;;;;;8.23;3.00;;;7.70;99.90;;;;;;5026964;28;21004;-86
2023/01/12 05:16:14;;;;;;;12.82;3.28;;;7.80;99.90;;;;;;5045324;28;20386;-86
2023/01/12 05:18:44;;;;;;;11.05;3.10;;;7.80;99.90;;;;;;5027303;28;20402;-86
2023/01/12 05:21:11;;;;;;;7.75;2.88;;;7.70;99.90;;;;;;5027967;28;20404;-86
2023/01/12 05:23:37;;;;;;;9.65;3.10;;;7.70;99.90;;;;;;5022189;28;20395;-86
2023/01/12 05:26:04;;;;;;;7.63;2.87;;;7.70;99.90;;;;;;5010786;28;20414;-86
2023/01/12 05:28:31;;;;;;;7.83;2.60;;;7.80;99.90;;;;;;5009325;28;20379;-85
2023/01/12 05:31:05;;;;;;;9.77;3.25;;;7.80;99.90;;;;;;5009399;28;20414;-86
2023/01/12 05:33:31;;;;;;;8.20;2.80;;;7.70;99.90;;;;;;4990442;28;20516;-88
2023/01/12 05:35:57;;;;;;;9.25;2.88;;;7.80;99.90;;;;;;5005348;28;20468;-86
2023/01/12 05:38:23;;;;;;;7.78;2.58;;;7.80;99.90;;;;;;5004519;28;20987;-86
2023/01/12 05:40:49;;;;;;;10.43;2.90;;;7.90;99.90;;;;;;4990137;28;20426;-85
2023/01/12 05:46:04;;;;;;;8.25;2.90;;;7.90;99.90;;;;;;5010292;28;20451;-87
2023/01/12 05:48:30;;;;;;;7.63;2.50;;;7.80;99.90;;;;;;5008833;28;20494;-86
2023/01/12 05:51:04;;;;;;;6.45;2.75;;;7.90;99.90;;;;;;5024444;28;20445;-85
2023/01/12 05:53:30;;;;;;;9.85;3.60;;;8.00;99.90;;;;;;5024911;28;20471;-86
2023/01/12 05:55:57;;;;;;;10.05;2.78;;;7.90;99.90;;;;;;5024578;28;20383;-86
2023/01/12 05:58:23;;;;;;;8.45;2.90;;;7.90;99.90;;;;;;5024313;28;20383;-85
2023/01/12 06:00:49;;;;;;;7.75;2.90;;;7.90;99.90;;;;;;5024755;28;20885;-85
2023/01/12 06:03:14;;;;;;;7.97;3.00;;;7.90;99.90;;;;;;5025201;28;20398;-86
2023/01/12 06:05:40;;;;;;;11.95;2.80;;;7.90;99.90;;;;;;5011123;28;20414;-87
2023/01/12 06:08:06;;;;;;;9.93;2.80;;;7.90;99.90;;;;;;5014216;28;20395;-84
2023/01/12 06:10:33;;;;;;;7.80;2.67;;;7.90;99.90;;;;;;5032864;28;20391;-84
2023/01/12 06:15:44;;;;;;;8.80;2.78;;;8.00;99.90;;;;;;5009896;28;20382;-86
2023/01/12 06:18:09;;;;;;;8.05;2.55;;;8.10;99.90;;;;;;5008333;28;20436;-86
2023/01/12 06:20:35;;;;;;;10.38;2.63;;;8.00;99.90;;;;;;5007896;28;20410;-86
2023/01/12 06:23:03;;;;;;;6.90;2.67;;;8.00;99.90;;;;;;5008927;28;20524;-84
2023/01/12 06:25:31;;;;;;;8.43;2.63;;;8.00;99.90;;;;;;5009313;28;20492;-85
2023/01/12 06:27:56;;;;;;;8.53;2.87;;;8.00;99.90;;;;;;5024367;28;20861;-85
2023/01/12 06:30:23;;;;;;;8.57;3.13;;;7.90;99.90;;;;;;5009295;28;20509;-86
2023/01/12 06:32:48;;;;;;;11.60;2.92;;;8.00;99.90;;;;;;5009180;28;20458;-87
2023/01/12 06:35:14;;;;;;;10.33;2.87;;;8.00;99.90;;;;;;5007727;28;20527;-86
2023/01/12 06:37:40;;;;;;;10.23;2.80;;;8.00;99.90;;;;;;5010345;28;20541;-86
2023/01/12 06:40:06;;;;;;;8.57;2.70;;;8.10;99.90;;;;;;5013689;28;20383;-86
2023/01/12 06:42:32;;;;;;;10.35;2.95;;;8.00;99.90;;;;;;5013381;28;20869;-86
2023/01/12 06:45:02;;;;;;;12.77;3.00;;;8.00;99.90;;;;;;5028487;28;20465;-86
2023/01/12 06:47:30;;;;;;;7.55;2.88;;;7.90;99.90;;;;;;5013363;28;20956;-85
2023/01/12 06:49:56;;;;;;;7.60;3.08;;;7.90;99.90;;;;;;5015320;28;20393;-85
2023/01/12 06:52:24;;;;;;;8.00;2.60;;;7.90;99.90;;;;;;5013453;28;20383;-86
2023/01/12 06:54:50;;;;;;;11.07;3.20;;;8.00;99.90;;;;;;5014275;28;20474;-85
2023/01/12 06:57:16;;;;;;;11.27;3.20;;;7.90;99.90;;;;;;5029448;28;20719;-85
2023/01/12 06:59:42;;;;;;;10.52;2.83;;;7.90;99.90;;;;;;5029926;28;20380;-85
2023/01/12 07:02:12;;;;;;;9.90;2.80;;;7.80;99.90;;;;;;5027181;28;20451;-85
2023/01/12 07:04:39;;;;;;;12.35;3.80;;;7.70;99.90;;;;;;5013533;28;20420;-86
2023/01/12 07:07:05;;;;;;;7.35;2.72;;;7.70;99.90;;;;;;5011452;28;20433;-85
2023/01/12 07:09:32;;;;;;;10.75;2.95;;;7.70;99.90;;;;;;5012867;28;20430;-85
2023/01/12 07:11:58;;;;;;;10.52;2.88;;;7.70;99.90;;;;;;5027252;28;20478;-85
2023/01/12 07:14:24;;;;;;;11.65;2.90;;;7.70;99.90;;;;;;5028080;28;20478;-85
2023/01/12 07:16:49;;;;;;;7.00;2.50;;;7.70;99.90;;;;;;5012343;28;20800;-85
2023/01/12 07:19:15;;;;;;;11.07;2.90;;;7.80;99.90;;;;;;5012359;28;20445;-84
2023/01/12 07:21:42;;;;;;;7.00;2.42;;;7.80;99.90;;;;;;5012568;28;20553;-85
2023/01/12 07:24:08;;;;;;;10.97;3.37;;;7.90;99.90;;;;;;5027817;28;20808;-85
2023/01/12 07:26:34;;;;;;;9.77;3.17;;;7.90;99.90;;;;;;5027427;28;20411;-85
2023/01/12 07:29:00;;;;;;;8.53;3.10;;;7.90;99.90;;;;;;5010206;28;20383;-84
2023/01/12 07:31:26;;;;;;;9.10;2.95;;;7.90;99.90;;;;;;5012428;28;20368;-84
2023/01/12 07:33:52;;;;;;;5.95;2.33;;;7.80;99.90;;;;;;5012356;28;20379;-84
2023/01/12 07:36:19;;;;;;;12.48;3.28;;;7.90;99.90;;;;;;5011855;28;20390;-85
2023/01/12 07:38:45;;;;;;;10.85;3.25;;;7.90;99.90;;;;;;5028384;28;20414;-85
2023/01/12 07:43:55;;;;;;;10.03;2.80;;;7.90;99.90;;;;;;5014451;28;20412;-85
2023/01/12 07:46:21;;;;;;;6.60;2.50;;;8.00;99.90;;;;;;5020272;28;21389;-85
2023/01/12 07:48:46;;;;;;;8.55;2.70;;;8.00;99.90;;;;;;5045278;28;20385;-85
2023/01/12 07:51:12;;;;;;;8.68;2.90;;;8.10;99.90;;;;;;5032279;28;20397;-85
2023/01/12 07:53:38;;;;;;;6.80;2.60;;;8.00;99.90;;;;;;5016384;28;20381;-86
2023/01/12 07:56:04;;;;;;;9.70;3.07;;;8.00;99.90;;;;;;5036241;28;20381;-85
2023/01/12 07:58:30;;;;;;;14.03;3.10;;;8.00;99.90;;;;;;5046980;28;20390;-85
2023/01/12 08:00:59;;;;;;;11.83;3.10;;;8.10;99.90;;;;;;5034985;28;20389;-87
2023/01/12 08:03:25;;;;;;;10.02;3.00;;;8.10;99.90;;;;;;5033826;28;20420;-85
2023/01/12 08:05:52;;;;;;;7.40;2.65;;;8.20;99.90;;;;;;5021114;28;20446;-85
2023/01/12 08:08:18;;;;;;;6.10;2.60;;;8.20;99.90;;;;;;5042526;28;20389;-86
2023/01/12 08:10:46;;;;;;;9.05;2.88;;;8.30;99.90;;;;;;5048559;28;20388;-86
2023/01/12 08:13:12;;;;;;;5.97;2.57;;;8.30;99.90;;;;;;5049236;28;20461;-84
2023/01/12 08:15:43;;;;;;;10.32;3.03;;;8.40;99.90;;;;;;5031900;28;20470;-85
2023/01/12 08:18:16;;;;;;;6.57;2.70;;;8.40;99.90;;;;;;5028628;28;20384;-85
2023/01/12 08:20:43;;;;;;;8.18;3.00;;;8.50;99.90;;;;;;5042036;28;20393;-86
2023/01/12 08:23:20;;;;;;;9.93;2.63;;;8.60;99.90;;;;;;5029631;28;20371;-84
2023/01/12 08:25:55;;;;;;;8.68;2.60;;;8.60;99.90;;;;;;5028208;28;20467;-84
2023/01/12 08:28:34;;;;;;;7.10;2.97;;;8.60;99.90;;;;;;5048030;28;20888;-85
2023/01/12 08:31:00;;;;;;;7.97;2.60;;;8.70;99.90;;;;;;5047694;28;20405;-85
2023/01/12 08:33:26;;;;;;;6.63;2.57;;;8.80;99.90;;;;;;5031364;28;21104;-86
2023/01/12 08:35:52;;;;;;;6.47;2.60;;;8.70;99.90;;;;;;5033613;28;20418;-85
2023/01/12 08:38:18;;;;;;;7.93;3.00;;;8.70;99.90;;;;;;5025541;28;20489;-85
2023/01/12 08:46:13;;;;;;;8.88;2.58;;;8.80;99.90;;;;;;5035183;28;20649;-87
2023/01/12 08:48:39;;;;;;;5.80;2.63;;;8.80;99.90;;;;;;5030380;28;20409;-86
2023/01/12 08:51:06;;;;;;;7.05;3.00;;;8.80;99.90;;;;;;5039083;28;20434;-84
2023/01/12 08:53:33;;;;;;;5.80;2.10;;;9.00;99.90;;;;;;5013346;28;20395;-82
2023/01/12 08:55:59;;;;;;;6.47;2.70;;;9.00;99.90;;;;;;5014703;28;20426;-87
2023/01/12 08:58:24;;;;;;;8.05;3.00;;;9.00;99.90;;;;;;5046560;28;20796;-84
2023/01/12 09:00:50;;;;;;;9.10;2.47;;;9.00;99.90;;;;;;5030409;28;20392;-84
2023/01/12 09:03:16;;;;;;;6.20;2.40;;;9.10;99.90;;;;;;5030246;28;20377;-85
2023/01/12 09:05:43;;;;;;;5.97;2.38;;;9.10;99.90;;;;;;5029815;28;20447;-86
2023/01/12 09:08:08;;;;;;;7.78;2.58;;;9.20;99.90;;;;;;5022672;28;20796;-86
2023/01/12 09:10:34;;;;;;;9.85;2.50;;;9.10;99.90;;;;;;5012563;28;21320;-86
2023/01/12 09:13:00;;;;;;;6.53;2.40;;;9.20;99.90;;;;;;5028834;28;20402;-85
2023/01/12 09:15:26;;;;;;;5.13;2.00;;;9.20;99.90;;;;;;5025594;28;20404;-84
2023/01/12 09:17:52;;;;;;;5.70;2.15;;;9.30;99.90;;;;;;5036534;28;21267;-81
2023/01/12 09:20:18;;;;;;;6.18;2.35;;;9.30;99.90;;;;;;5010290;28;20470;-82
2023/01/12 09:22:44;;;;;;;5.40;2.27;;;9.30;99.90;;;;;;5024941;28;20485;-84
2023/01/12 09:25:10;;;;;;;6.97;2.60;;;9.30;99.90;;;;;;5027615;28;20428;-83
2023/01/12 09:27:35;;;;;;;6.22;2.60;;;9.20;99.90;;;;;;5026599;28;20401;-84
2023/01/12 09:30:05;;;;;;;8.15;2.60;;;9.30;99.90;;;;;;5046002;28;20416;-83
2023/01/12 09:32:31;;;;;;;7.45;2.55;;;9.30;99.90;;;;;;5018050;28;20383;-83
2023/01/12 09:34:58;;;;;;;6.80;2.30;;;9.40;99.90;;;;;;5028436;28;20794;-84
2023/01/12 09:37:25;;;;;;;7.43;2.47;;;9.40;99.90;;;;;;5010608;28;20442;-85
2023/01/12 09:39:50;;;;;;;6.28;2.03;;;9.50;99.90;;;;;;5018914;28;20428;-85
2023/01/12 09:48:09;;;;;;;5.78;2.15;;;9.60;99.90;;;;;;5010018;28;20484;-85
2023/01/12 09:51:10;;;;;;;5.18;2.30;;;9.60;99.90;;;;;;5011328;28;21797;-85
2023/01/12 09:53:38;;;;;;;5.88;2.33;;;9.60;99.90;;;;;;5031685;28;20477;-84
2023/01/12 09:56:07;;;;;;;6.23;2.33;;;9.80;99.90;;;;;;5028923;28;20863;-84
2023/01/12 09:58:57;;;;;;;4.80;2.28;;;9.80;99.90;;;;;;5023102;28;20385;-84
2023/01/12 10:01:24;;;;;;;5.90;1.90;;;10.00;99.90;;;;;;5016943;28;21613;-83
2023/01/12 10:03:50;;;;;;;6.45;2.00;;;10.00;99.90;;;;;;5019812;28;20395;-83
2023/01/12 10:06:18;;;;;;;8.30;2.30;;;10.00;99.90;;;;;;5014636;28;20424;-83
2023/01/12 10:08:56;;;;;;;6.28;2.25;;;10.00;99.90;;;;;;5024233;28;20438;-84
2023/01/12 10:11:38;;;;;;;7.55;2.70;;;10.10;99.90;;;;;;5024373;28;20485;-85
2023/01/12 10:14:30;;;;;;;7.22;1.92;;;10.10;99.90;;;;;;5009184;28;20387;-85
2023/01/12 10:17:37;;;;;;;5.85;2.13;;;10.10;99.90;;;;;;5009132;28;20811;-85
2023/01/12 10:20:14;;;;;;;9.80;2.80;;;10.10;99.90;;;;;;5025787;28;20410;-84
2023/01/12 10:22:42;;;;;;;9.15;2.60;;;10.00;99.90;;;;;;5011099;28;20379;-85
2023/01/12 10:25:26;;;;;;;7.60;2.47;;;10.00;99.90;;;;;;5010951;28;20407;-84
2023/01/12 10:27:55;;;;;;;7.00;2.35;;;10.00;99.90;;;;;;5010334;28;20948;-84
2023/01/12 10:30:33;;;;;;;6.63;2.70;;;10.10;99.90;;;;;;5010092;28;20838;-84
2023/01/12 10:33:31;;;;;;;8.38;2.30;;;10.00;99.90;;;;;;5011012;28;21112;-84
2023/01/12 10:36:10;;;;;;;8.60;2.67;;;9.90;99.90;;;;;;5009684;28;20432;-84
2023/01/12 10:38:56;;;;;;;6.57;2.20;;;9.80;99.90;;;;;;5011781;28;20384;-84
2023/01/12 10:41:25;;;;;;;9.80;2.85;;;9.70;99.90;;;;;;5031516;28;20441;-85
2023/01/12 10:44:15;;;;;;;7.63;2.40;;;9.60;99.90;;;;;;5027556;28;20444;-85
2023/01/12 10:46:41;;;;;;;6.60;2.40;;;9.40;99.90;;;;;;5033520;28;20420;-84
2023/01/12 10:49:21;;;;;;;8.52;2.78;;;9.30;99.90;;;;;;5014207;28;20383;-85
2023/01/12 10:51:50;;;;;;;9.32;2.53;;;9.20;99.90;;;;;;5017237;28;20871;-84
2023/01/12 10:54:23;;;;;;;7.65;2.63;;;9.10;99.90;;;;;;5001851;28;20508;-84
2023/01/12 10:57:16;;;;;;;7.38;3.08;;;9.10;99.90;;;;;;5001920;28;20389;-83
2023/01/12 10:59:50;;;;;;;8.57;2.45;;;9.00;99.90;;;;;;5007277;28;20379;-83
2023/01/12 11:02:16;;;;;;;6.95;2.42;;;9.00;99.90;;;;;;5007428;28;20391;-83
2023/01/12 11:04:47;;;;;;;8.90;2.60;;;9.00;99.90;;;;;;5007786;28;20379;-85
2023/01/12 11:07:18;;;;;;;8.05;2.58;;;9.00;99.90;;;;;;5015514;28;20884;-83
2023/01/12 11:09:44;;;;;;;6.72;2.25;;;9.00;99.90;;;;;;5016339;28;20927;-84
2023/01/12 11:12:29;;;;;;;6.30;2.42;;;9.10;99.90;;;;;;5016151;28;20385;-89
2023/01/12 11:15:10;;;;;;;7.25;2.30;;;9.00;99.90;;;;;;5026084;28;20393;-85
2023/01/12 11:17:57;;;;;;;6.95;2.22;;;9.00;99.90;;;;;;5027233;28;21042;-85
2023/01/12 11:20:59;;;;;;;6.53;2.47;;;8.90;99.90;;;;;;5025592;28;20387;-84
2023/01/12 11:23:50;;;;;;;6.35;2.28;;;8.80;99.90;;;;;;5023824;28;20438;-84
2023/01/12 11:26:25;;;;;;;5.97;2.17;;;8.90;99.90;;;;;;4994035;28;20494;-85
2023/01/12 11:28:54;;;;;;;6.97;2.50;;;9.00;99.90;;;;;;5020936;28;20389;-84
2023/01/12 11:31:40;;;;;;;6.18;1.98;;;9.10;99.90;;;;;;5037983;28;20378;-85
2023/01/12 11:34:20;;;;;;;5.03;2.30;;;9.20;99.90;;;;;;5026714;28;20385;-83
2023/01/12 11:36:52;;;;;;;6.50;2.35;;;9.20;99.90;;;;;;5041041;28;20389;-84
2023/01/12 11:39:22;;;;;;;5.40;1.90;;;9.30;99.90;;;;;;5037631;28;20418;-85
2023/01/12 11:43:47;;;;;;;4.63;2.00;;;9.40;99.90;;;;;;5023520;28;20492;-84
2023/01/12 11:44:42;;;;;;;5.80;1.60;;;9.50;99.90;;;;;;5018056;28;20373;-85
2023/01/12 11:47:19;;;;;;;6.50;2.00;;;9.50;99.90;;;;;;5022695;28;20412;-86
2023/01/12 11:50:05;;;;;;;6.35;2.20;;;9.60;99.90;;;;;;5022733;28;20422;-83
2023/01/12 11:52:31;;;;;;;7.13;2.78;;;9.50;99.90;;;;;;5022211;28;20868;-82
2023/01/12 11:54:57;;;;;;;5.13;1.95;;;9.50;99.90;;;;;;5021046;28;20504;-84
2023/01/12 11:57:47;;;;;;;6.35;2.10;;;9.60;99.90;;;;;;5022325;28;20948;-85
2023/01/12 12:00:34;;;;;;;4.10;1.60;;;9.60;99.90;;;;;;5021357;28;20422;-85
2023/01/12 12:03:24;;;;;;;3.73;1.90;;;9.60;99.90;;;;;;5034789;28;20458;-85
2023/01/12 12:06:24;;;;;;;6.03;2.00;;;9.60;99.90;;;;;;5037338;28;20425;-84
2023/01/12 12:09:31;;;;;;;5.43;1.85;;;9.70;99.90;;;;;;5021864;28;20392;-85
2023/01/12 12:12:06;;;;;;;4.30;1.70;;;9.70;99.90;;;;;;5032324;28;20425;-85
2023/01/12 12:14:59;;;;;;;6.00;1.83;;;9.80;99.90;;;;;;5030640;28;20983;-85
2023/01/12 12:17:57;;;;;;;4.07;1.70;;;9.90;99.90;;;;;;5031165;28;20804;-85
2023/01/12 12:20:32;;;;;;;4.22;1.60;;;10.10;99.90;;;;;;5034941;28;20378;-88
2023/01/12 12:23:23;;;;;;;5.97;1.80;;;10.00;99.90;;;;;;5018120;28;20493;-85
2023/01/12 12:26:16;;;;;;;2.63;1.50;;;10.00;99.90;;;;;;5014861;28;20422;-84
2023/01/12 12:29:10;;;;;;;4.03;1.40;;;10.00;99.90;;;;;;5015584;28;20381;-86
2023/01/12 12:32:15;;;;;;;3.25;1.73;;;10.00;99.90;;;;;;5034084;28;21181;-85
2023/01/12 12:34:48;;;;;;;3.83;1.23;;;10.00;99.90;;;;;;5017406;28;20482;-86
2023/01/12 12:37:22;;;;;;;3.03;1.30;;;10.00;99.90;;;;;;5019022;28;20473;-85
2023/01/12 12:40:08;;;;;;;4.20;1.50;;;10.10;99.90;;;;;;5034878;28;20407;-85
2023/01/12 12:45:55;;;;;;;2.95;1.10;;;10.20;99.90;;;;;;5014365;28;20502;-85
2023/01/12 12:48:35;;;;;;;2.83;1.20;;;10.10;99.90;;;;;;5009908;28;20388;-85
2023/01/12 12:51:07;;;;;;;4.63;1.20;;;10.10;99.90;;;;;;5011800;28;20414;-85
2023/01/12 12:53:40;;;;;;;1.90;1.10;;;10.20;99.90;;;;;;5011263;28;20895;-86
2023/01/12 12:56:13;;;;;;;2.23;1.10;;;10.10;99.90;;;;;;5009888;28;20409;-85
2023/01/12 12:58:42;;;;;;;1.55;0.90;;;10.10;99.90;;;;;;5023617;28;20411;-86
2023/01/12 13:01:19;;;;;;;3.17;1.20;;;10.00;99.90;;;;;;5006558;28;20386;-85
2023/01/12 13:03:50;;;;;;;4.35;1.40;;;10.10;99.90;;;;;;5009065;28;20945;-84
2023/01/12 13:06:30;;;;;;;2.57;1.10;;;10.10;99.90;;;;;;5020849;28;20422;-84
2023/01/12 13:09:21;;;;;;;2.33;0.93;;;10.10;99.90;;;;;;5005899;28;20419;-85
2023/01/12 13:11:49;;;;;;;2.13;1.00;;;10.10;99.90;;;;;;5008233;28;20858;-85
2023/01/12 13:14:23;;;;;;;2.90;0.88;;;10.10;99.90;;;;;;5021473;28;20901;-84
2023/01/12 13:16:51;;;;;;;1.58;1.00;;;10.10;99.90;;;;;;5008336;28;20383;-84
2023/01/12 13:19:41;;;;;;;2.20;1.00;;;10.10;99.90;;;;;;5008343;28;20391;-84
2023/01/12 13:22:46;;;;;;;3.20;1.10;;;10.10;99.90;;;;;;5001972;28;20449;-84
2023/01/12 13:25:22;;;;;;;1.80;0.80;;;10.10;99.90;;;;;;5008964;28;20568;-83
2023/01/12 13:27:48;;;;;;;3.55;1.20;;;10.20;99.90;;;;;;5007854;28;20388;-84
2023/01/12 13:30:28;;;;;;;1.83;1.00;;;10.10;99.90;;;;;;5026975;28;20754;-84
2023/01/12 13:33:13;;;;;;;3.47;0.90;;;10.30;99.90;;;;;;5009819;28;20391;-83
2023/01/12 13:35:39;;;;;;;2.13;1.00;;;10.30;99.90;;;;;;5022250;28;20439;-84
2023/01/12 13:38:23;;;;;;;1.92;1.08;;;10.20;99.90;;;;;;5024190;28;20438;-85
2023/01/12 13:40:49;;;;;;;2.65;1.00;;;10.20;99.90;;;;;;5007188;28;20411;-83
2023/01/12 13:43:19;;;;;;;1.40;0.80;;;10.30;99.90;;;;;;5023225;28;20410;-84
2023/01/12 13:45:51;;;;;;;1.77;0.90;;;10.30;99.90;;;;;;5009672;28;20498;-84
2023/01/12 13:48:17;;;;;;;1.30;0.90;;;10.40;99.90;;;;;;5007825;28;20399;-84
2023/01/12 13:51:00;;;;;;;1.73;1.05;;;10.30;99.90;;;;;;5024030;28;20379;-85
2023/01/12 13:53:28;;;;;;;2.00;0.95;;;10.20;99.90;;;;;;5022615;28;20452;-83
2023/01/12 13:55:56;;;;;;;2.40;1.20;;;10.20;99.90;;;;;;5006541;28;20382;-83
2023/01/12 13:58:22;;;;;;;2.43;0.83;;;10.30;99.90;;;;;;5007994;28;20517;-85